Time;durP1;ratioP1;P1;durP2;ratioP2;P2;SDS_P1;SDS_P2;PMS_P1;PMS_P2;Temp;Humidity;BMP_temperature;BMP_pressure;BME280_temperature;BME280_humidity;BME280_pressure;Samples;Min_cycle;Max_cycle;Signal;HPM_P1;HPM_P2
2022/10/20 00:01:14;;;;;;;14.20;8.50;;;8.20;99.90;;;;;;5034863;28;20064;-66
2022/10/20 00:03:42;;;;;;;15.05;9.15;;;8.20;99.90;;;;;;5010999;28;20045;-67
2022/10/20 00:06:32;;;;;;;14.27;8.48;;;8.30;99.90;;;;;;5026871;28;20053;-67
2022/10/20 00:09:02;;;;;;;14.02;8.90;;;8.30;99.90;;;;;;5047417;28;20050;-67
2022/10/20 00:11:31;;;;;;;11.55;8.98;;;8.20;99.90;;;;;;5028519;28;20083;-66
2022/10/20 00:13:59;;;;;;;13.23;8.50;;;8.20;99.90;;;;;;5031951;28;20042;-67
2022/10/20 00:16:28;;;;;;;12.70;9.00;;;8.10;99.90;;;;;;5028340;28;20091;-67
2022/10/20 00:18:56;;;;;;;10.75;8.65;;;8.10;99.90;;;;;;5030634;28;20117;-67
2022/10/20 00:21:25;;;;;;;13.82;9.25;;;8.10;99.90;;;;;;5022207;28;20424;-67
2022/10/20 00:23:53;;;;;;;15.98;8.30;;;8.10;99.90;;;;;;5033896;28;20041;-67
2022/10/20 00:26:23;;;;;;;15.57;8.75;;;8.00;99.90;;;;;;5036893;28;20056;-66
2022/10/20 00:28:51;;;;;;;15.27;8.40;;;8.00;99.90;;;;;;5028311;28;20041;-66
2022/10/20 00:31:20;;;;;;;15.70;8.63;;;8.00;99.90;;;;;;5039674;28;20041;-67
2022/10/20 00:33:48;;;;;;;13.38;7.95;;;8.00;99.90;;;;;;5013125;28;20050;-68
2022/10/20 00:36:17;;;;;;;14.13;8.88;;;8.00;99.90;;;;;;5046454;28;20043;-67
2022/10/20 00:38:45;;;;;;;9.88;7.95;;;7.90;99.90;;;;;;5046891;28;20526;-67
2022/10/20 00:41:19;;;;;;;12.48;8.40;;;7.90;99.90;;;;;;5039548;28;20520;-67
2022/10/20 00:43:51;;;;;;;12.00;8.95;;;7.90;99.90;;;;;;5029062;28;20124;-67
2022/10/20 00:46:39;;;;;;;11.95;8.18;;;7.90;99.90;;;;;;5029507;28;20425;-68
2022/10/20 00:49:18;;;;;;;10.70;8.07;;;7.90;99.90;;;;;;5029754;28;20042;-67
2022/10/20 00:51:46;;;;;;;10.63;8.38;;;7.90;99.90;;;;;;5029567;28;20487;-67
2022/10/20 00:54:19;;;;;;;11.32;8.27;;;7.90;99.90;;;;;;5030132;28;20484;-67
2022/10/20 00:56:47;;;;;;;14.27;8.98;;;7.90;99.90;;;;;;5030354;28;20038;-67
2022/10/20 00:59:20;;;;;;;12.20;8.48;;;7.90;99.90;;;;;;5030257;28;20041;-67
2022/10/20 01:01:47;;;;;;;14.82;9.05;;;7.90;99.90;;;;;;5034576;28;20368;-67
2022/10/20 01:04:16;;;;;;;12.55;8.25;;;7.90;99.90;;;;;;5036063;28;20053;-67
2022/10/20 01:06:43;;;;;;;15.63;8.70;;;7.90;99.90;;;;;;5029209;28;20468;-67
2022/10/20 01:09:11;;;;;;;13.45;8.73;;;7.80;99.90;;;;;;5029386;28;20163;-67
2022/10/20 01:11:44;;;;;;;10.38;8.20;;;7.80;99.90;;;;;;5027909;28;20126;-67
2022/10/20 01:14:23;;;;;;;13.23;8.77;;;7.80;99.90;;;;;;5029173;28;20458;-67
2022/10/20 01:17:03;;;;;;;11.85;8.73;;;7.80;99.90;;;;;;5028490;28;20041;-67
2022/10/20 01:19:36;;;;;;;13.13;8.77;;;7.80;99.90;;;;;;5028562;28;20053;-66
2022/10/20 01:22:35;;;;;;;15.45;9.63;;;7.80;99.90;;;;;;5027785;28;20044;-68
2022/10/20 01:25:40;;;;;;;15.50;8.82;;;7.80;99.90;;;;;;5029275;28;20515;-67
2022/10/20 01:28:18;;;;;;;12.38;8.88;;;7.70;99.90;;;;;;5029489;28;20129;-67
2022/10/20 01:30:51;;;;;;;12.13;9.30;;;7.70;99.90;;;;;;5028089;28;20072;-67
2022/10/20 01:33:39;;;;;;;13.05;9.35;;;7.70;99.90;;;;;;5029606;28;20063;-67
2022/10/20 01:36:15;;;;;;;13.45;9.27;;;7.60;99.90;;;;;;5049629;28;20033;-67
2022/10/20 01:38:53;;;;;;;13.18;8.73;;;7.60;99.90;;;;;;5049541;28;20132;-67
2022/10/20 01:41:40;;;;;;;15.95;9.95;;;7.60;99.90;;;;;;5032163;28;20049;-67
2022/10/20 01:44:11;;;;;;;15.25;9.25;;;7.60;99.90;;;;;;5028091;28;20033;-67
2022/10/20 01:46:40;;;;;;;13.80;9.18;;;7.50;99.90;;;;;;5027456;28;20048;-66
2022/10/20 01:49:08;;;;;;;15.43;9.52;;;7.60;99.90;;;;;;5029266;28;20037;-66
2022/10/20 01:51:36;;;;;;;13.82;9.13;;;7.50;99.90;;;;;;5029003;28;20408;-67
2022/10/20 01:54:03;;;;;;;17.67;10.27;;;7.50;99.90;;;;;;5012297;28;20046;-66
2022/10/20 01:56:52;;;;;;;13.00;9.70;;;7.60;99.90;;;;;;5030282;28;20043;-67
2022/10/20 01:59:57;;;;;;;14.75;9.90;;;7.50;99.90;;;;;;5021808;28;20037;-68
2022/10/20 02:02:44;;;;;;;14.32;9.98;;;7.50;99.90;;;;;;5018726;28;20456;-68
2022/10/20 02:05:14;;;;;;;16.20;10.48;;;7.50;99.90;;;;;;5041465;28;20042;-67
2022/10/20 02:07:42;;;;;;;13.55;10.20;;;7.50;99.90;;;;;;5026117;28;20583;-67
2022/10/20 02:10:10;;;;;;;14.43;10.57;;;7.40;99.90;;;;;;5029705;28;20103;-67
2022/10/20 02:12:41;;;;;;;16.05;9.95;;;7.40;99.90;;;;;;5028072;28;20048;-66
2022/10/20 02:15:13;;;;;;;15.73;9.82;;;7.40;99.90;;;;;;5026284;28;20045;-68
2022/10/20 02:17:44;;;;;;;;;;;7.40;99.90;;;;;;5020612;28;20484;-67
2022/10/20 02:20:12;;;;;;;21.08;10.93;;;7.40;99.90;;;;;;5028066;28;19924;-67
2022/10/20 02:22:40;;;;;;;14.85;10.00;;;7.30;99.90;;;;;;5030095;28;20052;-65
2022/10/20 02:25:11;;;;;;;14.43;10.48;;;7.40;99.90;;;;;;5012475;28;20045;-66
2022/10/20 02:27:42;;;;;;;13.30;9.80;;;7.30;99.90;;;;;;5025259;28;20435;-67
2022/10/20 02:30:15;;;;;;;14.63;10.68;;;7.30;99.90;;;;;;5028582;28;20496;-67
2022/10/20 02:32:48;;;;;;;14.73;10.52;;;7.30;99.90;;;;;;5026952;28;20049;-67
2022/10/20 02:35:26;;;;;;;13.68;9.95;;;7.30;99.90;;;;;;5040674;28;20041;-67
2022/10/20 02:37:53;;;;;;;17.45;10.63;;;7.30;99.90;;;;;;5048860;28;20380;-67
2022/10/20 02:40:21;;;;;;;14.07;10.20;;;7.30;99.90;;;;;;5032813;28;20049;-68
2022/10/20 02:42:48;;;;;;;15.93;10.48;;;7.30;99.90;;;;;;5027894;28;20579;-67
2022/10/20 02:45:16;;;;;;;14.57;10.20;;;7.30;99.90;;;;;;5027825;28;20029;-67
2022/10/20 02:47:43;;;;;;;14.23;10.57;;;7.30;99.90;;;;;;5028633;28;20071;-69
2022/10/20 02:50:11;;;;;;;16.58;10.68;;;7.30;99.90;;;;;;5017772;28;20041;-67
2022/10/20 02:52:39;;;;;;;12.70;10.50;;;7.20;99.90;;;;;;5031605;28;20083;-67
2022/10/20 02:55:07;;;;;;;14.48;11.60;;;7.20;99.90;;;;;;5019295;28;20046;-67
2022/10/20 02:57:34;;;;;;;16.02;11.13;;;7.10;99.90;;;;;;5029853;28;20041;-67
2022/10/20 03:00:04;;;;;;;13.43;10.85;;;7.20;99.90;;;;;;5042715;28;20421;-67
2022/10/20 03:02:31;;;;;;;18.88;11.27;;;7.10;99.90;;;;;;5027133;28;20524;-67
2022/10/20 03:04:59;;;;;;;24.38;11.50;;;7.10;99.90;;;;;;5029613;28;20128;-67
2022/10/20 03:07:26;;;;;;;15.07;11.25;;;7.00;99.90;;;;;;5028280;28;20685;-67
2022/10/20 03:09:53;;;;;;;17.17;11.35;;;7.00;99.90;;;;;;5027916;28;20047;-67
2022/10/20 03:12:21;;;;;;;15.70;10.88;;;7.00;99.90;;;;;;5029804;28;20522;-67
2022/10/20 03:14:48;;;;;;;15.15;10.75;;;7.00;99.90;;;;;;5030750;28;20072;-67
2022/10/20 03:17:15;;;;;;;14.93;11.35;;;7.00;99.90;;;;;;5030385;28;20508;-69
2022/10/20 03:19:42;;;;;;;16.27;11.40;;;7.00;99.90;;;;;;5030175;28;20064;-66
2022/10/20 03:22:10;;;;;;;19.15;11.73;;;6.90;99.90;;;;;;5033029;28;20045;-68
2022/10/20 03:24:37;;;;;;;16.05;11.48;;;6.90;99.90;;;;;;5032851;28;20042;-68
2022/10/20 03:27:05;;;;;;;16.33;10.98;;;6.90;99.90;;;;;;5032692;28;20041;-68
2022/10/20 03:29:32;;;;;;;14.77;10.90;;;6.80;99.90;;;;;;5032223;28;20050;-68
2022/10/20 03:32:00;;;;;;;15.68;12.02;;;6.80;99.90;;;;;;5032877;28;20033;-68
2022/10/20 03:34:27;;;;;;;15.25;10.63;;;6.80;99.90;;;;;;5037721;28;20495;-67
2022/10/20 03:36:55;;;;;;;16.23;12.05;;;6.70;99.90;;;;;;5052900;28;20045;-68
2022/10/20 03:39:22;;;;;;;15.80;11.68;;;6.70;99.90;;;;;;5030444;28;20053;-69
2022/10/20 03:41:49;;;;;;;15.30;11.60;;;6.70;99.90;;;;;;5030915;28;20051;-68
2022/10/20 03:44:17;;;;;;;17.02;11.40;;;6.70;99.90;;;;;;5030463;28;20037;-68
2022/10/20 03:46:44;;;;;;;18.83;11.10;;;6.70;99.90;;;;;;5031781;28;20420;-67
2022/10/20 03:49:11;;;;;;;14.52;11.80;;;6.70;99.90;;;;;;5014158;28;20049;-67
2022/10/20 03:51:39;;;;;;;18.40;11.65;;;6.70;99.90;;;;;;5011262;28;20546;-67
2022/10/20 03:54:06;;;;;;;17.85;12.65;;;6.70;99.90;;;;;;5024250;28;20578;-67
2022/10/20 03:56:33;;;;;;;15.77;11.48;;;6.80;99.90;;;;;;5030431;28;20190;-67
2022/10/20 03:59:00;;;;;;;15.93;11.02;;;6.80;99.90;;;;;;5029374;28;20060;-68
2022/10/20 04:01:33;;;;;;;;;;;6.80;99.90;;;;;;5030733;28;20045;-67
2022/10/20 04:04:01;;;;;;;18.95;11.88;;;6.80;99.90;;;;;;5031148;28;19967;-68
2022/10/20 04:06:28;;;;;;;17.52;11.93;;;6.70;99.90;;;;;;5030319;28;20057;-67
2022/10/20 04:08:55;;;;;;;16.90;11.32;;;6.70;99.90;;;;;;5031408;28;20053;-68
2022/10/20 04:11:23;;;;;;;16.00;11.45;;;6.70;99.90;;;;;;5031658;28;20479;-67
2022/10/20 04:13:50;;;;;;;18.75;13.05;;;6.70;99.90;;;;;;5031283;28;20539;-68
2022/10/20 04:16:17;;;;;;;16.73;12.13;;;6.70;99.90;;;;;;5012268;28;20377;-67
2022/10/20 04:18:45;;;;;;;19.92;12.55;;;6.70;99.90;;;;;;5022317;28;20046;-68
2022/10/20 04:21:12;;;;;;;18.42;12.02;;;6.70;99.90;;;;;;5023485;28;20046;-67
2022/10/20 04:23:39;;;;;;;18.13;12.48;;;6.70;99.90;;;;;;5031520;28;20046;-68
2022/10/20 04:26:09;;;;;;;18.23;11.70;;;6.70;99.90;;;;;;5030257;28;20507;-70
2022/10/20 04:28:37;;;;;;;18.10;11.85;;;6.70;99.90;;;;;;5028839;28;20121;-68
2022/10/20 04:31:04;;;;;;;17.80;12.10;;;6.70;99.90;;;;;;5031907;28;20075;-68
2022/10/20 04:33:32;;;;;;;20.73;12.82;;;6.70;99.90;;;;;;5035313;28;20557;-68
2022/10/20 04:36:02;;;;;;;19.42;12.85;;;6.70;99.90;;;;;;5030311;28;20069;-67
2022/10/20 04:38:30;;;;;;;21.48;12.57;;;6.70;99.90;;;;;;5030125;28;20077;-67
2022/10/20 04:40:59;;;;;;;22.52;12.88;;;6.70;99.90;;;;;;5029487;28;20068;-68
2022/10/20 04:43:31;;;;;;;17.00;12.50;;;6.70;99.90;;;;;;5028756;28;20052;-69
2022/10/20 04:46:00;;;;;;;19.60;13.02;;;6.60;99.90;;;;;;5027167;28;20042;-67
2022/10/20 04:48:34;;;;;;;20.30;13.13;;;6.70;99.90;;;;;;5020092;28;20045;-67
2022/10/20 04:51:09;;;;;;;18.23;13.60;;;6.60;99.90;;;;;;5028774;28;20041;-68
2022/10/20 04:53:36;;;;;;;20.05;12.98;;;6.60;99.90;;;;;;5028725;28;20064;-68
2022/10/20 04:56:06;;;;;;;19.00;12.48;;;6.60;99.90;;;;;;5023777;28;20053;-68
2022/10/20 04:58:34;;;;;;;18.27;13.23;;;6.60;99.90;;;;;;5041712;28;20038;-68
2022/10/20 05:01:09;;;;;;;19.35;12.90;;;6.60;99.90;;;;;;5023999;28;20053;-68
2022/10/20 05:03:36;;;;;;;20.75;13.88;;;6.60;99.90;;;;;;5018210;28;20048;-68
2022/10/20 05:06:24;;;;;;;17.40;12.95;;;6.60;99.90;;;;;;5015053;28;20042;-68
2022/10/20 05:08:54;;;;;;;19.33;12.60;;;6.50;99.90;;;;;;5024922;28;20068;-68
2022/10/20 05:11:23;;;;;;;19.02;13.38;;;6.50;99.90;;;;;;5013595;28;20500;-68
2022/10/20 05:13:51;;;;;;;21.27;12.85;;;6.50;99.90;;;;;;5025336;28;20136;-68
2022/10/20 05:16:18;;;;;;;21.52;13.73;;;6.50;99.90;;;;;;5013361;28;20048;-69
2022/10/20 05:18:47;;;;;;;22.92;13.13;;;6.50;99.90;;;;;;5016130;28;20145;-67
2022/10/20 05:21:17;;;;;;;22.27;14.23;;;6.50;99.90;;;;;;4996768;28;20077;-68
2022/10/20 05:23:45;;;;;;;17.23;13.13;;;6.50;99.90;;;;;;5026873;28;20516;-69
2022/10/20 05:26:17;;;;;;;20.95;14.38;;;6.50;99.90;;;;;;5011459;28;20424;-68
2022/10/20 05:28:47;;;;;;;21.45;14.38;;;6.50;99.90;;;;;;5012337;28;20591;-68
2022/10/20 05:31:15;;;;;;;23.15;15.02;;;6.60;99.90;;;;;;5020444;28;20465;-68
2022/10/20 05:33:48;;;;;;;19.55;13.82;;;6.60;99.90;;;;;;5030368;28;20504;-68
2022/10/20 05:36:18;;;;;;;20.88;15.30;;;6.70;99.90;;;;;;5028568;28;20451;-68
2022/10/20 05:38:48;;;;;;;19.17;13.52;;;6.70;99.90;;;;;;5017769;28;20424;-70
2022/10/20 05:41:19;;;;;;;19.17;14.00;;;6.80;99.90;;;;;;5013576;28;20045;-69
2022/10/20 05:43:48;;;;;;;22.35;14.10;;;6.80;99.90;;;;;;5012055;28;20575;-67
2022/10/20 05:46:17;;;;;;;21.55;14.38;;;6.90;99.90;;;;;;5008188;28;20052;-68
2022/10/20 05:48:44;;;;;;;20.20;13.50;;;6.90;99.90;;;;;;5024616;28;20043;-68
2022/10/20 05:51:14;;;;;;;20.45;14.35;;;6.90;99.90;;;;;;5023347;28;20115;-68
2022/10/20 05:53:43;;;;;;;24.95;14.98;;;6.90;99.90;;;;;;5011276;28;20504;-68
2022/10/20 05:56:12;;;;;;;19.30;13.85;;;6.90;99.90;;;;;;5013285;28;20048;-68
2022/10/20 05:58:41;;;;;;;23.75;14.60;;;6.90;99.90;;;;;;5011456;28;20460;-68
2022/10/20 06:01:23;;;;;;;25.27;15.20;;;6.90;99.90;;;;;;5009824;28;20088;-68
2022/10/20 06:03:56;;;;;;;22.35;14.13;;;6.90;99.90;;;;;;5017501;28;20053;-69
2022/10/20 06:06:28;;;;;;;22.17;15.07;;;7.00;99.90;;;;;;5026428;28;20052;-69
2022/10/20 06:08:58;;;;;;;22.60;14.20;;;7.00;99.90;;;;;;5026162;28;20041;-70
2022/10/20 06:11:26;;;;;;;21.83;13.48;;;7.10;99.90;;;;;;5016178;28;20420;-69
2022/10/20 06:13:55;;;;;;;20.13;13.18;;;7.20;99.90;;;;;;5022369;28;20566;-69
2022/10/20 06:16:25;;;;;;;23.38;13.68;;;7.20;99.90;;;;;;5009663;28;20056;-69
2022/10/20 06:18:52;;;;;;;20.40;13.57;;;7.30;99.90;;;;;;5015088;28;20424;-69
2022/10/20 06:21:22;;;;;;;24.63;14.00;;;7.40;99.90;;;;;;5021740;28;20038;-69
2022/10/20 06:23:50;;;;;;;19.25;13.38;;;7.50;99.90;;;;;;5024761;28;20084;-69
2022/10/20 06:26:21;;;;;;;22.40;14.27;;;7.60;99.90;;;;;;5021022;28;20053;-68
2022/10/20 06:28:53;;;;;;;22.63;14.00;;;7.70;99.90;;;;;;5009256;28;20061;-69
2022/10/20 06:31:32;;;;;;;22.70;13.63;;;7.80;99.90;;;;;;5013872;28;20061;-69
2022/10/20 06:34:02;;;;;;;21.92;12.68;;;7.90;99.90;;;;;;5027567;28;20037;-69
2022/10/20 06:36:32;;;;;;;19.33;12.95;;;8.00;99.90;;;;;;5020393;28;20057;-69
2022/10/20 06:39:00;;;;;;;16.95;13.05;;;8.10;99.90;;;;;;5006359;28;20056;-69
2022/10/20 06:41:27;;;;;;;21.63;13.35;;;8.10;99.90;;;;;;5019671;28;20044;-69
2022/10/20 06:43:58;;;;;;;27.15;12.60;;;8.20;99.90;;;;;;5014108;28;20038;-69
2022/10/20 06:46:31;;;;;;;21.08;13.20;;;8.30;99.90;;;;;;5034091;28;20048;-69
2022/10/20 06:49:05;;;;;;;17.50;13.35;;;8.40;99.90;;;;;;5022047;28;20050;-69
2022/10/20 06:51:34;;;;;;;17.92;12.60;;;8.40;99.90;;;;;;5017501;28;20053;-69
2022/10/20 06:54:02;;;;;;;20.13;13.43;;;8.50;99.90;;;;;;5026980;28;20038;-69
2022/10/20 06:56:32;;;;;;;21.08;13.27;;;8.60;99.90;;;;;;5025192;28;20045;-69
2022/10/20 06:59:00;;;;;;;18.13;14.02;;;8.70;99.90;;;;;;5024795;28;20045;-69
2022/10/20 07:01:33;;;;;;;20.98;13.10;;;8.80;99.90;;;;;;5024965;28;20045;-69
2022/10/20 07:04:04;;;;;;;19.00;12.73;;;8.90;99.90;;;;;;5023871;28;20052;-69
2022/10/20 07:06:34;;;;;;;18.92;13.02;;;9.10;99.90;;;;;;5029680;28;20077;-69
2022/10/20 07:09:04;;;;;;;15.88;11.50;;;9.20;99.90;;;;;;5029827;28;20046;-69
2022/10/20 07:11:33;;;;;;;19.50;13.13;;;9.30;99.90;;;;;;5025899;28;20130;-69
2022/10/20 07:14:01;;;;;;;22.15;12.43;;;9.30;99.90;;;;;;5029530;28;20064;-69
2022/10/20 07:16:31;;;;;;;18.42;12.18;;;9.30;99.90;;;;;;5024987;28;20227;-68
2022/10/20 07:19:00;;;;;;;15.27;11.57;;;9.40;99.90;;;;;;5029187;28;20045;-68
2022/10/20 07:21:28;;;;;;;22.40;12.13;;;9.50;99.90;;;;;;5028777;28;20403;-69
2022/10/20 07:24:04;;;;;;;16.70;11.45;;;9.50;99.90;;;;;;5028969;28;20062;-68
2022/10/20 07:26:34;;;;;;;18.50;12.48;;;9.60;99.90;;;;;;5028919;28;20049;-68
2022/10/20 07:29:03;;;;;;;17.40;12.63;;;9.70;99.90;;;;;;5027650;28;20053;-69
2022/10/20 07:31:40;;;;;;;16.77;12.30;;;9.70;99.90;;;;;;5000289;28;20331;-68
2022/10/20 07:34:10;;;;;;;21.35;12.60;;;9.80;99.90;;;;;;5025875;28;20053;-69
2022/10/20 07:36:55;;;;;;;15.07;11.27;;;9.90;99.90;;;;;;5013010;28;20084;-69
2022/10/20 07:39:23;;;;;;;16.52;11.57;;;10.00;99.90;;;;;;5023801;28;20129;-68
2022/10/20 07:41:51;;;;;;;20.55;11.40;;;10.10;99.90;;;;;;5025811;28;20492;-68
2022/10/20 07:44:18;;;;;;;17.05;11.95;;;10.20;99.90;;;;;;5027255;28;20091;-69
2022/10/20 07:46:46;;;;;;;17.88;11.73;;;10.30;99.90;;;;;;5027388;28;20041;-69
2022/10/20 07:49:14;;;;;;;16.48;11.95;;;10.30;99.90;;;;;;5011033;28;20057;-71
2022/10/20 07:52:01;;;;;;;15.68;11.35;;;10.50;99.90;;;;;;5025408;28;20034;-68
2022/10/20 07:54:29;;;;;;;15.98;11.30;;;10.70;99.90;;;;;;5025253;28;20523;-68
2022/10/20 07:56:56;;;;;;;20.98;11.95;;;10.70;99.90;;;;;;5027940;28;20132;-69
2022/10/20 07:59:23;;;;;;;14.52;10.95;;;10.90;99.90;;;;;;5019967;28;20488;-69
2022/10/20 08:01:51;;;;;;;17.00;10.73;;;11.00;99.90;;;;;;5021653;28;20104;-68
2022/10/20 08:04:23;;;;;;;;;;;11.10;99.90;;;;;;5024679;28;20495;-68
2022/10/20 08:06:50;;;;;;;16.13;10.70;;;11.20;99.90;;;;;;5029771;28;20410;-69
2022/10/20 08:09:17;;;;;;;15.52;11.38;;;11.30;99.90;;;;;;5031137;28;20053;-68
2022/10/20 08:11:45;;;;;;;17.67;10.85;;;11.40;99.90;;;;;;5030613;28;20044;-69
2022/10/20 08:14:12;;;;;;;16.58;10.82;;;11.40;99.90;;;;;;5022082;28;20456;-69
2022/10/20 08:16:40;;;;;;;18.42;9.60;;;11.50;99.90;;;;;;5032320;28;20045;-68
2022/10/20 08:19:11;;;;;;;16.65;11.98;;;11.60;99.90;;;;;;5031773;28;20053;-69
2022/10/20 08:21:45;;;;;;;15.00;10.60;;;11.70;99.90;;;;;;5027304;28;20046;-68
2022/10/20 08:24:12;;;;;;;17.23;9.55;;;11.80;99.90;;;;;;5029960;28;20069;-69
2022/10/20 08:26:40;;;;;;;13.00;9.45;;;12.00;99.90;;;;;;5032218;28;20059;-69
2022/10/20 08:29:08;;;;;;;14.63;10.07;;;12.10;99.90;;;;;;5030606;28;20052;-69
2022/10/20 08:31:35;;;;;;;15.93;9.88;;;12.30;99.90;;;;;;5027479;28;20041;-69
2022/10/20 08:34:03;;;;;;;70.82;40.70;;;12.40;99.90;;;;;;5024906;28;20419;-69
2022/10/20 08:36:36;;;;;;;16.58;10.40;;;12.50;99.90;;;;;;5025508;28;20163;-69
2022/10/20 08:39:04;;;;;;;15.52;8.75;;;12.80;99.90;;;;;;5016926;28;20404;-68
2022/10/20 08:41:38;;;;;;;16.45;9.82;;;12.90;99.90;;;;;;5026837;28;20065;-68
2022/10/20 08:44:33;;;;;;;13.30;9.60;;;13.00;99.90;;;;;;5008537;28;20096;-69
2022/10/20 08:47:03;;;;;;;11.48;8.93;;;13.10;99.90;;;;;;5021404;28;20057;-68
2022/10/20 08:49:33;;;;;;;11.27;8.68;;;13.20;99.90;;;;;;5015368;28;20073;-68
2022/10/20 08:52:01;;;;;;;13.32;8.82;;;13.30;99.90;;;;;;5015877;28;20061;-69
2022/10/20 08:54:32;;;;;;;14.15;9.23;;;13.50;99.90;;;;;;5015521;28;20170;-69
2022/10/20 08:57:00;;;;;;;13.73;9.40;;;13.70;99.90;;;;;;5026523;28;20033;-68
2022/10/20 08:59:33;;;;;;;14.20;8.85;;;13.90;99.90;;;;;;5029790;28;20056;-68
2022/10/20 09:02:12;;;;;;;11.52;8.50;;;14.10;99.90;;;;;;5028828;28;20140;-68
2022/10/20 09:04:46;;;;;;;12.63;8.88;;;14.40;99.90;;;;;;5030155;28;20161;-68
2022/10/20 09:07:26;;;;;;;14.00;8.75;;;14.50;99.90;;;;;;5031209;28;20583;-68
2022/10/20 09:10:25;;;;;;;11.07;8.20;;;14.60;99.90;;;;;;5030845;28;20464;-69
2022/10/20 09:12:52;;;;;;;14.40;8.95;;;14.90;99.90;;;;;;5016354;28;20049;-68
2022/10/20 09:15:21;;;;;;;15.43;8.45;;;14.90;99.90;;;;;;5027738;28;20037;-68
2022/10/20 09:17:52;;;;;;;13.35;8.57;;;15.00;99.90;;;;;;5030482;28;20392;-68
2022/10/20 09:20:30;;;;;;;13.25;8.55;;;15.20;99.90;;;;;;5032315;28;20144;-69
2022/10/20 09:23:01;;;;;;;12.18;8.80;;;15.20;99.90;;;;;;5035273;28;20049;-68
2022/10/20 09:25:40;;;;;;;12.65;8.23;;;15.40;99.90;;;;;;5029234;28;20065;-69
2022/10/20 09:28:21;;;;;;;11.20;8.18;;;15.50;99.90;;;;;;5009834;28;20042;-68
2022/10/20 09:30:49;;;;;;;12.23;8.48;;;15.50;99.90;;;;;;5025267;28;20049;-69
2022/10/20 09:33:32;;;;;;;11.13;8.35;;;15.60;99.90;;;;;;5026496;28;20071;-69
2022/10/20 09:36:13;;;;;;;11.82;7.93;;;15.80;99.90;;;;;;5025251;28;20038;-69
2022/10/20 09:38:49;;;;;;;10.52;8.05;;;15.90;99.90;;;;;;5024653;28;20543;-69
2022/10/20 09:41:24;;;;;;;8.93;7.30;;;15.90;99.90;;;;;;5009781;28;20064;-69
2022/10/20 09:44:07;;;;;;;10.57;8.38;;;15.90;99.90;;;;;;5025756;28;20095;-68
2022/10/20 09:46:44;;;;;;;12.63;7.40;;;16.00;99.90;;;;;;5025613;28;20128;-68
2022/10/20 09:49:32;;;;;;;10.70;8.60;;;16.10;99.90;;;;;;5030160;28;20095;-68
2022/10/20 09:52:01;;;;;;;8.20;7.30;;;16.20;99.90;;;;;;5026212;28;20129;-68
2022/10/20 09:54:29;;;;;;;12.65;8.02;;;16.40;99.90;;;;;;5032668;28;20667;-68
2022/10/20 09:57:15;;;;;;;11.25;7.72;;;16.60;99.90;;;;;;5029722;28;20507;-68
2022/10/20 09:59:45;;;;;;;12.70;7.38;;;16.80;99.90;;;;;;5024858;28;20365;-68
2022/10/20 10:02:16;;;;;;;9.93;7.90;;;17.00;99.90;;;;;;5020592;28;20049;-69
2022/10/20 10:04:46;;;;;;;8.90;7.35;;;17.10;99.90;;;;;;5029141;28;20392;-70
2022/10/20 10:07:25;;;;;;;10.63;8.05;;;17.40;99.90;;;;;;5028919;28;20080;-69
2022/10/20 10:10:06;;;;;;;12.25;7.93;;;17.50;99.90;;;;;;5012079;28;20095;-69
2022/10/20 10:12:35;;;;;;;11.30;7.65;;;17.90;99.90;;;;;;5030023;28;20045;-69
2022/10/20 10:15:07;;;;;;;11.18;7.20;;;18.20;99.90;;;;;;5039543;28;20408;-70
2022/10/20 10:17:40;;;;;;;9.57;7.50;;;17.90;99.90;;;;;;5020262;28;20522;-69
2022/10/20 10:20:10;;;;;;;9.00;7.18;;;17.80;99.90;;;;;;5023001;28;20515;-70
2022/10/20 10:22:39;;;;;;;9.25;7.47;;;17.90;99.90;;;;;;5023472;28;20033;-68
2022/10/20 10:25:15;;;;;;;13.60;7.20;;;17.90;99.90;;;;;;5026659;28;20033;-71
2022/10/20 10:28:02;;;;;;;8.82;7.35;;;18.00;99.90;;;;;;5020358;28;20148;-70
2022/10/20 10:30:34;;;;;;;8.57;7.75;;;18.10;99.90;;;;;;5025706;28;20037;-71
2022/10/20 10:33:26;;;;;;;10.90;7.72;;;18.20;99.90;;;;;;5027345;28;20508;-71
2022/10/20 10:35:54;;;;;;;;;;;18.20;99.90;;;;;;5029548;28;20447;-68
2022/10/20 10:38:21;;;;;;;11.25;8.15;;;18.50;99.90;;;;;;5027852;28;19925;-69
2022/10/20 10:41:29;;;;;;;10.68;7.35;;;18.60;99.90;;;;;;5029085;28;20045;-71
2022/10/20 10:43:56;;;;;;;11.50;7.30;;;18.60;99.90;;;;;;5022721;28;20045;-69
2022/10/20 10:46:35;;;;;;;10.35;7.80;;;18.80;99.90;;;;;;5020700;28;20464;-69
2022/10/20 10:50:04;;;;;;;9.18;7.57;;;18.50;99.90;;;;;;5021190;28;20414;-70
2022/10/20 10:52:53;;;;;;;10.45;7.63;;;18.40;99.90;;;;;;5017398;28;20073;-70
2022/10/20 10:55:29;;;;;;;8.45;7.40;;;18.40;99.90;;;;;;5022997;28;20511;-70
2022/10/20 10:58:26;;;;;;;9.75;7.47;;;18.50;99.90;;;;;;5018613;28;20034;-68
2022/10/20 11:01:13;;;;;;;10.00;7.47;;;18.90;99.90;;;;;;5025025;28;20045;-71
2022/10/20 11:04:11;;;;;;;11.05;7.75;;;19.40;99.90;;;;;;5020862;28;20049;-69
2022/10/20 11:06:47;;;;;;;10.82;8.02;;;19.80;99.90;;;;;;5027204;28;20077;-68
2022/10/20 11:09:41;;;;;;;9.18;7.60;;;20.40;99.90;;;;;;5021860;28;20046;-69
2022/10/20 11:12:25;;;;;;;8.80;7.70;;;20.60;99.90;;;;;;5017332;28;20037;-69
2022/10/20 11:15:14;;;;;;;8.60;7.32;;;20.60;99.90;;;;;;5018415;28;20050;-69
2022/10/20 11:17:50;;;;;;;9.20;7.38;;;20.60;99.90;;;;;;5012487;28;20042;-69
2022/10/20 11:20:23;;;;;;;9.70;7.10;;;20.70;99.90;;;;;;5026141;28;20052;-69
2022/10/20 11:22:51;;;;;;;9.23;7.00;;;20.90;99.90;;;;;;5020899;28;20049;-68
2022/10/20 11:25:26;;;;;;;12.93;7.55;;;21.00;99.90;;;;;;5029506;28;20057;-68
2022/10/20 11:27:55;;;;;;;10.52;6.93;;;21.20;99.90;;;;;;5022265;28;20129;-69
2022/10/20 11:30:22;;;;;;;10.55;6.78;;;21.50;99.90;;;;;;5023777;28;20041;-69
2022/10/20 11:33:04;;;;;;;10.43;6.90;;;21.40;99.90;;;;;;5025071;28;20144;-69
2022/10/20 11:35:39;;;;;;;;;;;21.60;99.90;;;;;;5030329;28;20033;-69
2022/10/20 11:38:40;;;;;;;8.38;7.18;;;21.50;99.90;;;;;;5029619;28;20012;-70
2022/10/20 11:41:47;;;;;;;12.23;8.10;;;21.50;99.90;;;;;;5014200;28;20046;-71
2022/10/20 11:44:26;;;;;;;10.80;7.80;;;21.50;99.90;;;;;;5023430;28;20042;-69
2022/10/20 11:46:59;;;;;;;9.07;7.10;;;21.50;99.90;;;;;;5020232;28;20041;-69
2022/10/20 11:49:29;;;;;;;12.20;7.43;;;21.40;99.90;;;;;;5027899;28;20125;-68
2022/10/20 11:52:07;;;;;;;9.52;7.07;;;21.30;99.90;;;;;;5027315;28;20471;-69
2022/10/20 11:54:46;;;;;;;8.60;7.32;;;21.70;99.90;;;;;;5010831;28;20067;-69
2022/10/20 11:57:43;;;;;;;8.63;7.20;;;21.80;99.90;;;;;;5022853;28;20046;-69
2022/10/20 12:00:26;;;;;;;7.60;6.80;;;22.00;99.90;;;;;;5028445;28;20120;-69
2022/10/20 12:03:38;;;;;;;7.60;6.82;;;22.40;99.90;;;;;;5025059;28;20045;-69
2022/10/20 12:06:49;;;;;;;8.43;7.07;;;22.80;99.90;;;;;;5037169;28;20038;-68
2022/10/20 12:09:19;;;;;;;10.88;7.18;;;23.30;99.90;;;;;;5031856;28;22000;-68
2022/10/20 12:12:01;;;;;;;9.25;7.25;;;24.30;99.90;;;;;;5010700;28;20048;-69
2022/10/20 12:14:40;;;;;;;10.77;7.45;;;24.90;99.90;;;;;;5028713;28;20574;-69
2022/10/20 12:17:32;;;;;;;10.07;7.40;;;24.60;99.90;;;;;;5029574;28;20037;-69
2022/10/20 12:20:18;;;;;;;8.75;7.03;;;24.50;99.90;;;;;;5022438;28;20045;-69
2022/10/20 12:22:54;;;;;;;8.93;7.57;;;23.80;99.90;;;;;;5030755;28;20045;-69
2022/10/20 12:25:32;;;;;;;9.35;6.93;;;23.30;99.90;;;;;;5005226;28;20057;-69
2022/10/20 12:28:19;;;;;;;8.30;7.38;;;22.80;99.90;;;;;;5026324;28;20128;-70
2022/10/20 12:31:01;;;;;;;11.05;6.97;;;22.30;99.90;;;;;;5017824;28;20507;-69
2022/10/20 12:33:38;;;;;;;8.98;6.95;;;21.60;99.90;;;;;;5028444;28;20120;-69
2022/10/20 12:36:16;;;;;;;10.63;7.07;;;21.00;99.90;;;;;;5029337;28;20133;-69
2022/10/20 12:38:49;;;;;;;7.82;6.80;;;20.80;99.90;;;;;;5027778;28;20666;-69
2022/10/20 12:41:32;;;;;;;13.48;6.85;;;20.80;99.90;;;;;;5016560;28;20056;-69
2022/10/20 12:44:21;;;;;;;11.15;6.90;;;20.60;99.90;;;;;;5014967;28;20046;-68
2022/10/20 12:47:17;;;;;;;8.70;6.95;;;20.80;99.90;;;;;;5017933;28;20049;-69
2022/10/20 12:49:54;;;;;;;10.52;7.50;;;20.60;99.90;;;;;;5032280;28;20480;-69
2022/10/20 12:52:34;;;;;;;10.10;7.55;;;20.70;99.90;;;;;;5029921;28;20190;-69
2022/10/20 12:55:07;;;;;;;8.30;7.10;;;21.00;99.90;;;;;;5034294;28;20042;-69
2022/10/20 12:57:40;;;;;;;9.77;7.15;;;21.20;99.90;;;;;;5031368;28;20045;-69
2022/10/20 13:00:20;;;;;;;8.02;6.25;;;21.60;99.90;;;;;;5028675;28;20041;-70
2022/10/20 13:02:56;;;;;;;8.23;7.43;;;21.80;99.90;;;;;;5022927;28;20143;-69
2022/10/20 13:05:41;;;;;;;8.18;6.70;;;21.90;99.90;;;;;;5021260;28;20045;-70
2022/10/20 13:08:18;;;;;;;12.18;6.97;;;22.70;99.90;;;;;;5029064;28;20158;-70
2022/10/20 13:10:47;;;;;;;8.38;7.13;;;24.20;99.90;;;;;;5011621;28;20131;-69
2022/10/20 13:13:17;;;;;;;7.90;7.10;;;24.50;99.90;;;;;;5029624;28;20128;-69